Terminal Aerodrome Forecast
Issued by NWS Flagstaff, AZ

Home | Current Version | Previous Version | Text Only | Print | Product List | Glossary On
Versions: 1 2 3 4 5 6 7 8 9 10 11 12 13 14 15 16
430
FTUS45 KFGZ 200520
TAFINW
TAF
KINW 200520Z 2006/2106 24010KT P6SM SCT100
     FM201200 15006KT P6SM BKN100 PROB30 2019/2023 VRB15G25KT 6SM
      -TSRA BKN080CB
     FM210200 VRB03KT P6SM SCT110=

USA.gov is the U.S. government's official web portal to all federal, state and local government web resources and services.